Time;durP1;ratioP1;P1;durP2;ratioP2;P2;SDS_P1;SDS_P2;PMS_P1;PMS_P2;Temp;Humidity;BMP_temperature;BMP_pressure;BME280_temperature;BME280_humidity;BME280_pressure;Samples;Min_cycle;Max_cycle;Signal;HPM_P1;HPM_P2
2023/09/26 00:00:20;;;;;;;23.80;11.63;;;;;;;19.76;86.33;100639.03;5023572;28;20089;-74
2023/09/26 00:02:46;;;;;;;30.00;11.80;;;;;;;19.41;85.61;100561.28;5016511;28;20493;-75
2023/09/26 00:05:13;;;;;;;33.55;10.45;;;;;;;19.76;84.50;100628.56;5033834;28;20025;-75
2023/09/26 00:07:38;;;;;;;28.15;10.35;;;;;;;19.81;83.65;100631.19;5033271;28;20040;-74
2023/09/26 00:10:10;;;;;;;25.50;10.57;;;;;;;19.81;83.12;100628.59;5033639;28;20030;-77
2023/09/26 00:12:36;;;;;;;28.58;8.70;;;;;;;19.83;81.36;100634.75;5031573;28;20029;-77
2023/09/26 00:15:01;;;;;;;18.92;8.57;;;;;;;19.70;81.40;100618.06;5032051;28;20036;-76
2023/09/26 00:17:27;;;;;;;26.92;8.38;;;;;;;19.71;80.79;100625.06;5032674;28;20477;-76
2023/09/26 00:19:53;;;;;;;20.23;7.68;;;;;;;19.46;80.05;100588.34;5031799;28;20100;-74
2023/09/26 00:22:19;;;;;;;19.52;7.82;;;;;;;19.67;79.94;100624.19;5019862;28;20064;-76
2023/09/26 00:24:45;;;;;;;20.83;7.18;;;;;;;19.54;79.31;100614.56;5033102;28;20771;-77
2023/09/26 00:27:11;;;;;;;25.60;7.30;;;;;;;19.31;79.22;100564.75;5032495;28;20026;-79
2023/09/26 00:29:36;;;;;;;20.77;6.90;;;;;;;19.76;79.13;100633.81;5025113;28;20032;-75
2023/09/26 00:32:03;;;;;;;20.52;7.15;;;;;;;19.69;79.45;100624.22;5013574;28;20527;-75
2023/09/26 00:34:28;;;;;;;23.38;7.22;;;;;;;19.46;78.71;100583.13;5021535;28;20484;-76
2023/09/26 00:36:55;;;;;;;30.80;7.68;;;;;;;19.52;79.22;100588.38;5031588;28;20038;-79
2023/09/26 00:39:21;;;;;;;20.13;7.30;;;;;;;19.55;79.07;100598.84;5032741;28;20117;-78
2023/09/26 00:41:46;;;;;;;19.10;8.02;;;;;;;19.70;79.18;100620.69;5016798;28;20456;-76
2023/09/26 00:44:12;;;;;;;23.73;8.25;;;;;;;19.62;79.33;100615.44;5013196;28;20092;-78
2023/09/26 00:46:39;;;;;;;22.27;7.72;;;;;;;19.69;78.87;100627.69;5013030;28;20034;-77
2023/09/26 00:49:06;;;;;;;24.45;7.82;;;;;;;19.46;79.06;100588.34;5011964;28;20137;-78
2023/09/26 00:51:32;;;;;;;24.83;8.30;;;;;;;19.30;79.06;100556.06;5049333;28;20102;-79
2023/09/26 00:53:58;;;;;;;23.67;7.90;;;;;;;19.63;79.29;100616.34;5051885;28;20042;-77
2023/09/26 00:56:25;;;;;;;24.17;7.35;;;;;;;19.54;79.25;100601.47;5034591;28;20032;-78
2023/09/26 00:58:51;;;;;;;22.98;7.97;;;;;;;19.60;80.24;100605.84;5034676;28;20028;-77
2023/09/26 01:01:21;;;;;;;21.23;6.65;;;;;;;19.66;80.46;100613.72;5034654;28;20040;-78
2023/09/26 01:03:46;;;;;;;21.50;7.68;;;;;;;19.50;80.79;100589.22;5034848;28;20021;-79
2023/09/26 01:06:12;;;;;;;18.20;7.03;;;;;;;19.65;80.86;100607.63;5052336;28;20029;-79
2023/09/26 01:08:38;;;;;;;23.10;6.78;;;;;;;19.59;80.77;100601.47;5051897;28;20519;-78
2023/09/26 01:11:04;;;;;;;24.83;6.72;;;;;;;19.57;80.04;100601.47;5034289;28;20029;-77
2023/09/26 01:13:30;;;;;;;31.80;8.02;;;;;;;19.57;80.20;100609.34;5052543;28;20051;-78
2023/09/26 01:15:57;;;;;;;31.00;8.70;;;;;;;19.53;80.55;100595.34;5034508;28;20125;-77
2023/09/26 01:18:23;;;;;;;18.20;6.72;;;;;;;19.58;80.17;100610.19;5052164;28;20029;-77
2023/09/26 01:20:49;;;;;;;19.85;6.55;;;;;;;19.65;79.24;100611.97;5051922;28;20023;-74
2023/09/26 01:23:16;;;;;;;25.98;7.03;;;;;;;19.56;79.45;100599.72;5052149;28;20112;-77
2023/09/26 01:25:42;;;;;;;22.35;6.65;;;;;;;19.52;79.45;100584.88;5033984;28;20048;-75
2023/09/26 01:28:10;;;;;;;23.58;7.15;;;;;;;19.54;79.87;100609.34;5052053;28;20025;-75
2023/09/26 01:30:37;;;;;;;19.08;7.28;;;;;;;19.45;80.30;100607.56;5052090;28;20033;-74
2023/09/26 01:33:03;;;;;;;21.73;7.85;;;;;;;19.31;80.48;100593.56;5051812;28;20041;-76
2023/09/26 01:35:29;;;;;;;20.25;7.43;;;;;;;19.39;80.70;100608.41;5051699;28;20054;-76
2023/09/26 01:37:54;;;;;;;24.48;7.05;;;;;;;19.28;80.93;100604.00;5051751;28;20021;-75
2023/09/26 01:40:20;;;;;;;22.20;8.13;;;;;;;19.21;81.27;100605.75;5052075;28;20029;-77
2023/09/26 01:42:45;;;;;;;21.05;6.85;;;;;;;19.17;81.13;100596.13;5034106;28;20025;-74
2023/09/26 01:45:11;;;;;;;24.05;6.82;;;;;;;19.28;81.95;100611.84;5051578;28;20099;-76
2023/09/26 01:47:49;;;;;;;15.45;6.90;;;;;;;19.23;81.97;100617.97;5049964;28;20025;-76
2023/09/26 01:50:16;;;;;;;25.50;6.80;;;;;;;19.08;82.37;100608.31;5051056;28;20053;-76
2023/09/26 01:52:42;;;;;;;22.90;6.72;;;;;;;19.16;82.45;100613.56;5020725;28;20036;-76
2023/09/26 01:55:12;;;;;;;20.08;6.70;;;;;;;18.69;82.39;100535.72;5033197;28;20029;-75
2023/09/26 01:57:38;;;;;;;18.42;5.65;;;;;;;19.06;82.45;100601.31;5033658;28;20554;-75
2023/09/26 02:00:10;;;;;;;18.33;6.47;;;;;;;18.95;82.69;100592.56;5033465;28;20029;-76
2023/09/26 02:02:39;;;;;;;18.20;5.32;;;;;;;19.03;83.11;100609.16;5033550;28;20037;-75
2023/09/26 02:05:09;;;;;;;24.25;6.43;;;;;;;19.01;82.67;100608.28;5051135;28;20093;-78
2023/09/26 02:07:35;;;;;;;16.02;5.53;;;;;;;19.02;82.71;100608.28;5032730;28;20105;-74
2023/09/26 02:10:01;;;;;;;24.25;5.80;;;;;;;19.02;82.87;100591.72;5033379;28;20021;-75
2023/09/26 02:12:26;;;;;;;24.70;6.68;;;;;;;19.12;83.13;100611.81;5033328;28;20025;-75
2023/09/26 02:14:51;;;;;;;21.17;5.50;;;;;;;19.14;83.12;100603.97;5051114;28;20524;-75
2023/09/26 02:17:17;;;;;;;14.80;5.38;;;;;;;18.91;83.09;100557.66;5050619;28;20548;-76
2023/09/26 02:19:42;;;;;;;21.00;5.68;;;;;;;19.19;83.06;100610.97;5050649;28;20031;-76
2023/09/26 02:22:08;;;;;;;18.27;5.28;;;;;;;19.08;83.58;100596.97;5051049;28;20025;-76
2023/09/26 02:24:33;;;;;;;21.20;5.38;;;;;;;19.27;83.43;100623.22;5050871;28;20029;-82
2023/09/26 02:27:01;;;;;;;25.77;6.13;;;;;;;19.19;83.33;100605.75;5050659;28;20029;-79
2023/09/26 02:29:27;;;;;;;17.60;5.57;;;;;;;19.20;83.56;100604.88;5019973;28;20585;-75
2023/09/26 02:31:53;;;;;;;21.42;5.10;;;;;;;19.13;83.44;100595.25;5050179;28;20029;-75
2023/09/26 02:34:19;;;;;;;17.73;5.75;;;;;;;19.22;83.32;100602.25;5032722;28;20801;-75
2023/09/26 02:36:44;;;;;;;19.23;5.53;;;;;;;19.33;83.04;100618.88;5050999;28;20035;-75
2023/09/26 02:39:10;;;;;;;25.02;6.03;;;;;;;19.36;83.53;100620.63;5050684;28;20029;-77
2023/09/26 02:41:36;;;;;;;16.45;5.20;;;;;;;19.23;83.42;100601.41;5050833;28;20029;-78
2023/09/26 02:44:03;;;;;;;19.55;5.60;;;;;;;19.30;83.08;100607.50;5050844;28;20079;-77
2023/09/26 02:46:29;;;;;;;17.60;5.53;;;;;;;19.28;83.22;100619.72;5050379;28;20029;-78
2023/09/26 02:48:54;;;;;;;22.02;5.88;;;;;;;19.31;83.13;100628.44;5050299;28;20409;-77
2023/09/26 02:51:20;;;;;;;24.63;5.95;;;;;;;19.18;83.12;100601.38;5032349;28;20055;-78
2023/09/26 02:53:45;;;;;;;38.50;6.93;;;;;;;19.23;83.15;100604.88;5050084;28;20040;-77
2023/09/26 02:56:11;;;;;;;13.63;5.47;;;;;;;19.21;83.19;100598.75;5050321;28;20095;-74
2023/09/26 02:58:36;;;;;;;21.85;6.25;;;;;;;19.35;83.33;100622.38;5050148;28;20492;-76
2023/09/26 03:01:03;;;;;;;15.10;5.82;;;;;;;19.25;83.32;100602.25;5031717;28;20025;-77
2023/09/26 03:03:29;;;;;;;20.77;6.00;;;;;;;19.48;83.29;100617.19;5032301;28;20083;-80
2023/09/26 03:05:55;;;;;;;16.60;5.63;;;;;;;19.46;83.62;100618.91;5049894;28;20033;-78
2023/09/26 03:08:21;;;;;;;17.58;5.22;;;;;;;19.59;83.36;100622.41;5050149;28;20404;-78
2023/09/26 03:10:47;;;;;;;17.83;6.25;;;;;;;19.69;82.46;100627.69;5049754;28;20025;-79
2023/09/26 03:13:12;;;;;;;21.35;5.28;;;;;;;19.67;82.39;100612.84;5049913;28;20025;-78
2023/09/26 03:15:38;;;;;;;18.13;5.60;;;;;;;19.78;81.82;100628.59;5031931;28;20147;-78
2023/09/26 03:18:04;;;;;;;19.50;5.88;;;;;;;19.86;81.35;100634.72;5048222;28;20029;-78
2023/09/26 03:20:30;;;;;;;20.75;6.35;;;;;;;19.79;82.69;100615.50;5031897;28;20071;-78
2023/09/26 03:22:55;;;;;;;20.52;5.57;;;;;;;19.90;82.49;100635.59;5031595;28;20078;-79
2023/09/26 03:25:21;;;;;;;15.35;5.65;;;;;;;19.90;80.50;100623.41;4987564;28;20201;-78
2023/09/26 03:27:47;;;;;;;16.23;6.60;;;;;;;19.82;81.20;100604.13;4971919;28;20035;-78
2023/09/26 03:30:16;;;;;;;17.40;5.80;;;;;;;19.97;81.45;100633.00;4987956;28;20038;-79
2023/09/26 03:32:41;;;;;;;20.23;6.10;;;;;;;19.79;81.33;100607.63;4988074;28;20030;-77
2023/09/26 03:35:09;;;;;;;17.88;5.57;;;;;;;19.91;82.10;100622.50;4987930;28;20097;-83
2023/09/26 03:37:35;;;;;;;17.70;5.85;;;;;;;19.81;82.51;100624.22;4988108;28;20117;-77
2023/09/26 03:40:00;;;;;;;16.17;6.38;;;;;;;19.76;83.07;100617.22;4987769;28;20049;-77
2023/09/26 03:42:28;;;;;;;19.52;5.68;;;;;;;19.76;84.44;100617.22;4971752;28;20030;-76
2023/09/26 03:44:53;;;;;;;18.40;5.68;;;;;;;19.72;83.81;100629.44;4971207;28;20042;-76
2023/09/26 03:47:19;;;;;;;22.08;5.80;;;;;;;19.60;84.93;100617.22;4987782;28;20041;-77
2023/09/26 03:49:44;;;;;;;26.80;6.25;;;;;;;19.64;85.28;100626.81;4987424;28;20439;-77
2023/09/26 03:52:09;;;;;;;16.98;5.60;;;;;;;19.50;84.81;100607.56;4971630;28;20058;-79
2023/09/26 03:54:37;;;;;;;23.02;5.75;;;;;;;19.53;85.51;100621.53;4971420;28;20030;-76
2023/09/26 03:57:04;;;;;;;19.48;5.75;;;;;;;19.38;85.81;100613.66;5036535;28;20512;-77
2023/09/26 03:59:30;;;;;;;17.30;5.47;;;;;;;19.24;85.52;100601.41;5049072;28;20125;-77
2023/09/26 04:01:56;;;;;;;27.33;7.03;;;;;;;18.62;86.25;100492.09;5049463;28;20082;-79
2023/09/26 04:04:21;;;;;;;17.92;6.47;;;;;;;19.27;86.24;100605.75;5049479;28;20025;-76
2023/09/26 04:06:47;;;;;;;19.67;5.70;;;;;;;19.21;86.93;100614.44;5049537;28;20036;-78
2023/09/26 04:09:14;;;;;;;20.65;6.32;;;;;;;19.15;86.49;100613.56;5049136;28;20032;-78
2023/09/26 04:11:39;;;;;;;21.85;6.18;;;;;;;19.19;86.71;100624.06;5047945;28;20021;-76
2023/09/26 04:14:05;;;;;;;16.48;5.78;;;;;;;19.09;87.31;100622.28;5030916;28;20036;-74
2023/09/26 04:16:31;;;;;;;16.48;6.10;;;;;;;19.15;87.41;100627.53;5046447;28;20079;-76
2023/09/26 04:18:57;;;;;;;25.88;6.57;;;;;;;19.14;88.13;100617.94;5049144;28;20468;-81
2023/09/26 04:21:23;;;;;;;27.90;6.55;;;;;;;19.24;88.43;100630.19;5049797;28;20032;-76
2023/09/26 04:23:48;;;;;;;31.33;6.60;;;;;;;19.27;87.99;100624.09;5026402;28;20038;-76
2023/09/26 04:26:15;;;;;;;17.85;5.85;;;;;;;19.22;87.96;100620.59;5026575;28;20045;-77
2023/09/26 04:28:45;;;;;;;32.08;6.10;;;;;;;19.17;87.72;100620.56;5010245;28;20048;-76
2023/09/26 04:31:17;;;;;;;;;;;;;;;19.26;88.08;100637.19;5031205;28;20601;-76
2023/09/26 04:33:44;;;;;;;21.92;6.50;;;;;;;19.16;88.45;100623.16;5030389;28;20392;-78
2023/09/26 04:36:09;;;;;;;21.92;7.18;;;;;;;19.23;88.86;100631.03;5030417;28;20516;-76
2023/09/26 04:38:36;;;;;;;24.75;6.78;;;;;;;19.18;89.46;100629.31;5030433;28;20055;-76
2023/09/26 04:41:02;;;;;;;19.77;6.32;;;;;;;19.16;89.38;100617.94;5013664;28;20022;-76
2023/09/26 04:43:30;;;;;;;22.05;7.30;;;;;;;19.27;89.61;100637.16;5030119;28;20535;-80
2023/09/26 04:45:55;;;;;;;23.67;6.72;;;;;;;19.13;90.12;100623.16;5013771;28;20048;-83
2023/09/26 04:48:20;;;;;;;26.13;7.50;;;;;;;19.21;90.48;100624.91;5030028;28;20874;-76
2023/09/26 04:50:46;;;;;;;32.15;7.85;;;;;;;19.22;90.07;100634.53;5013248;28;20068;-76
2023/09/26 04:53:11;;;;;;;24.13;7.60;;;;;;;19.24;89.30;100635.41;5029737;28;20116;-76
2023/09/26 04:55:37;;;;;;;23.52;7.32;;;;;;;19.24;89.61;100634.56;5048842;28;20516;-77
2023/09/26 04:58:03;;;;;;;19.85;6.72;;;;;;;19.27;89.21;100642.41;5052449;28;20464;-77
2023/09/26 05:00:29;;;;;;;26.52;7.45;;;;;;;19.40;89.07;100662.53;5009979;28;20096;-78
2023/09/26 05:02:54;;;;;;;21.55;6.97;;;;;;;19.49;89.01;100653.84;4993832;28;20060;-76
2023/09/26 05:05:20;;;;;;;27.60;7.90;;;;;;;19.37;88.84;100627.63;5010365;28;20041;-79
2023/09/26 05:07:46;;;;;;;298.42;25.67;;;;;;;19.50;89.47;100639.00;5009335;28;20034;-78
2023/09/26 05:10:12;;;;;;;21.73;7.07;;;;;;;19.60;88.63;100659.13;5009905;28;20100;-78
2023/09/26 05:12:40;;;;;;;42.28;8.40;;;;;;;19.53;88.57;100652.97;4993039;28;20041;-82
2023/09/26 05:15:16;;;;;;;30.65;7.07;;;;;;;19.62;88.72;100657.34;5010210;28;20050;-82
2023/09/26 05:17:48;;;;;;;34.53;8.20;;;;;;;19.70;87.92;100659.97;4993200;28;20426;-77
2023/09/26 05:20:14;;;;;;;19.33;6.72;;;;;;;19.79;88.36;100674.84;5009639;28;20042;-77
2023/09/26 05:22:44;;;;;;;318.33;25.40;;;;;;;19.75;88.38;100658.28;5009083;28;20125;-78
2023/09/26 05:25:10;;;;;;;29.98;7.57;;;;;;;19.83;87.92;100661.81;5009765;28;20053;-77
2023/09/26 05:27:37;;;;;;;41.05;8.50;;;;;;;19.87;87.91;100660.91;5009274;28;20018;-78
2023/09/26 05:30:03;;;;;;;24.48;7.07;;;;;;;19.99;88.12;100672.31;4993282;28;20504;-78
2023/09/26 05:32:28;;;;;;;23.48;6.63;;;;;;;20.14;87.55;100695.06;5047937;28;20040;-75
2023/09/26 05:34:54;;;;;;;52.15;8.77;;;;;;;20.14;87.27;100690.69;5051599;28;20448;-76
2023/09/26 05:37:20;;;;;;;32.20;7.97;;;;;;;20.33;87.40;100703.78;5051798;28;20023;-76
2023/09/26 05:39:45;;;;;;;27.67;7.60;;;;;;;20.30;87.31;100699.44;5051353;28;20033;-79
2023/09/26 05:42:10;;;;;;;26.17;7.07;;;;;;;20.32;86.97;100699.41;5051570;28;20098;-76
2023/09/26 05:44:37;;;;;;;18.38;7.20;;;;;;;20.25;86.78;100684.56;5033612;28;20025;-75
2023/09/26 05:47:03;;;;;;;26.17;7.70;;;;;;;20.44;87.58;100701.19;5051481;28;20036;-75
2023/09/26 05:49:29;;;;;;;17.33;7.05;;;;;;;20.38;87.31;100690.69;5033511;28;20032;-76
2023/09/26 05:51:55;;;;;;;21.85;6.97;;;;;;;20.17;87.43;100646.09;5050975;28;20061;-75
2023/09/26 05:54:20;;;;;;;26.25;6.63;;;;;;;20.19;88.20;100649.59;5008858;28;20041;-77
2023/09/26 05:56:46;;;;;;;27.38;7.85;;;;;;;20.44;86.84;100688.94;4992614;28;20037;-77
2023/09/26 05:59:11;;;;;;;17.90;7.15;;;;;;;20.50;86.35;100682.81;5009162;28;20045;-77
2023/09/26 06:01:37;;;;;;;18.23;6.85;;;;;;;20.59;86.56;100689.81;5008909;28;20030;-76
2023/09/26 06:04:02;;;;;;;17.95;6.82;;;;;;;20.72;86.71;100701.19;5009023;28;20033;-80
2023/09/26 06:06:29;;;;;;;17.42;7.05;;;;;;;20.41;87.00;100631.25;4992237;28;20026;-77
2023/09/26 06:08:54;;;;;;;22.52;5.75;;;;;;;20.70;86.90;100672.31;5009028;28;20046;-76
2023/09/26 06:11:20;;;;;;;20.90;6.07;;;;;;;20.71;86.15;100653.09;5008722;28;20048;-83
2023/09/26 06:13:46;;;;;;;19.77;6.50;;;;;;;20.90;84.98;100689.78;5008571;28;20038;-82
2023/09/26 06:16:12;;;;;;;22.45;6.38;;;;;;;20.90;86.61;100684.53;5008795;28;20492;-77
2023/09/26 06:18:38;;;;;;;29.73;8.10;;;;;;;20.91;85.40;100687.16;4992525;28;20034;-76
2023/09/26 06:21:04;;;;;;;20.63;6.13;;;;;;;20.98;85.05;100693.25;5008399;28;20034;-77
2023/09/26 06:23:32;;;;;;;18.00;6.20;;;;;;;21.02;85.40;100689.75;4988730;28;20039;-76
2023/09/26 06:25:58;;;;;;;21.38;6.43;;;;;;;20.95;84.51;100672.28;4964292;28;20118;-77
2023/09/26 06:28:24;;;;;;;22.88;6.35;;;;;;;21.14;84.36;100688.84;4969627;28;20528;-78
2023/09/26 06:30:50;;;;;;;17.35;5.82;;;;;;;21.27;84.12;100690.56;4968906;28;20667;-75
2023/09/26 06:33:16;;;;;;;22.75;5.40;;;;;;;21.36;84.20;100684.41;4953410;28;20066;-74
2023/09/26 06:35:41;;;;;;;17.15;5.78;;;;;;;21.40;83.26;100675.63;4968976;28;20035;-76
2023/09/26 06:38:07;;;;;;;18.10;5.70;;;;;;;21.42;83.76;100687.00;4969281;28;20111;-76
2023/09/26 06:40:32;;;;;;;15.27;6.18;;;;;;;21.34;83.99;100670.41;4952906;28;20035;-76
2023/09/26 06:43:00;;;;;;;19.88;5.53;;;;;;;21.50;84.29;100686.97;4952958;28;20046;-81
2023/09/26 06:45:27;;;;;;;17.95;6.00;;;;;;;21.57;84.83;100698.34;4952856;28;20400;-83
2023/09/26 06:47:53;;;;;;;16.95;6.45;;;;;;;21.24;85.01;100616.19;4969100;28;20039;-78
2023/09/26 06:50:19;;;;;;;18.08;5.82;;;;;;;21.71;86.07;100674.59;4952271;28;20502;-76
2023/09/26 06:52:44;;;;;;;19.67;5.93;;;;;;;21.47;85.46;100627.44;4968689;28;20046;-78
2023/09/26 06:55:10;;;;;;;21.60;5.80;;;;;;;22.00;86.08;100692.84;4973397;28;20049;-73
2023/09/26 06:57:39;;;;;;;19.10;6.05;;;;;;;22.07;84.64;100686.66;5040139;28;20041;-78
2023/09/26 07:00:05;;;;;;;14.15;5.55;;;;;;;22.26;85.04;100697.03;5049730;28;20116;-79
2023/09/26 07:02:31;;;;;;;17.63;5.75;;;;;;;22.22;85.86;100685.66;5050380;28;20029;-75
2023/09/26 07:04:57;;;;;;;18.77;6.22;;;;;;;22.49;85.45;100703.91;5031753;28;20511;-75
2023/09/26 07:07:23;;;;;;;22.45;6.00;;;;;;;22.63;87.15;100686.25;5048688;28;20021;-77
2023/09/26 07:09:49;;;;;;;20.05;5.90;;;;;;;22.77;85.07;100699.25;5049915;28;20029;-78
2023/09/26 07:12:14;;;;;;;16.33;5.85;;;;;;;22.89;84.39;100706.16;5050213;28;20117;-78
2023/09/26 07:14:40;;;;;;;18.98;6.22;;;;;;;23.01;84.32;100711.28;5049778;28;20037;-77
2023/09/26 07:17:09;;;;;;;21.67;6.57;;;;;;;22.96;84.81;100691.19;5032205;28;20520;-79
2023/09/26 07:19:34;;;;;;;14.93;6.40;;;;;;;23.07;83.87;100716.47;5006921;28;20037;-77
2023/09/26 07:22:00;;;;;;;16.08;6.50;;;;;;;22.32;84.55;100589.16;5007696;28;20521;-78
2023/09/26 07:24:25;;;;;;;17.98;6.50;;;;;;;23.04;83.97;100718.28;5007822;28;20413;-80
2023/09/26 07:26:51;;;;;;;16.23;6.13;;;;;;;23.05;84.20;100718.28;5007691;28;20072;-78
2023/09/26 07:29:17;;;;;;;23.77;6.53;;;;;;;23.03;83.91;100698.97;5007687;28;20066;-78
2023/09/26 07:31:43;;;;;;;27.58;11.27;;;;;;;23.30;81.41;100707.47;5007639;28;20030;-78
2023/09/26 07:34:08;;;;;;;22.33;12.20;;;;;;;23.36;80.93;100712.66;5007832;28;20052;-84
2023/09/26 07:36:34;;;;;;;14.88;5.40;;;;;;;23.39;81.29;100712.66;5007771;28;20037;-80
2023/09/26 07:38:59;;;;;;;17.95;6.22;;;;;;;23.36;81.68;100717.94;5008166;28;20069;-78
2023/09/26 07:41:25;;;;;;;24.25;6.93;;;;;;;22.99;81.48;100646.38;5008252;28;20112;-80
2023/09/26 07:43:50;;;;;;;22.58;7.45;;;;;;;23.35;80.87;100705.69;4991604;28;20033;-79
2023/09/26 07:46:16;;;;;;;28.98;7.63;;;;;;;23.53;80.18;100708.97;5007886;28;20418;-78
2023/09/26 07:48:42;;;;;;;22.00;7.55;;;;;;;23.63;80.24;100688.63;5007688;28;20045;-78
2023/09/26 07:51:09;;;;;;;15.80;6.65;;;;;;;23.81;78.70;100705.94;5020947;28;20049;-82
2023/09/26 07:53:35;;;;;;;26.73;6.95;;;;;;;23.96;78.87;100692.56;5049946;28;20082;-78
2023/09/26 07:56:01;;;;;;;20.30;6.05;;;;;;;24.29;74.71;100711.41;5049918;28;20033;-78
2023/09/26 07:58:26;;;;;;;15.45;6.50;;;;;;;24.16;74.35;100663.28;5049889;28;20021;-76
2023/09/26 08:01:00;;;;;;;27.75;7.60;;;;;;;24.13;72.86;100651.91;5050176;28;20033;-78
2023/09/26 08:03:27;;;;;;;22.25;6.88;;;;;;;24.44;72.79;100714.72;5014639;28;20061;-75
2023/09/26 08:05:59;;;;;;;19.77;6.00;;;;;;;24.43;73.51;100682.16;5035606;28;20118;-81
2023/09/26 08:08:25;;;;;;;14.95;6.40;;;;;;;24.33;73.63;100633.94;5054113;28;20029;-80
2023/09/26 08:10:50;;;;;;;20.90;5.55;;;;;;;24.70;71.82;100686.09;5052327;28;20239;-81
2023/09/26 08:13:16;;;;;;;15.50;5.10;;;;;;;24.89;70.80;100687.56;5053990;28;20044;-81
2023/09/26 08:15:41;;;;;;;18.63;5.93;;;;;;;25.03;70.31;100678.47;5053535;28;20032;-80
2023/09/26 08:18:07;;;;;;;18.75;6.68;;;;;;;25.17;68.58;100709.00;5035950;28;20131;-83
2023/09/26 08:20:33;;;;;;;24.08;6.78;;;;;;;25.17;68.98;100683.47;5053679;28;20031;-83
2023/09/26 08:22:58;;;;;;;23.88;6.45;;;;;;;25.29;69.99;100690.25;5035869;28;20031;-78
2023/09/26 08:25:25;;;;;;;19.30;5.93;;;;;;;25.47;70.35;100698.72;5053648;28;20021;-81
2023/09/26 08:27:50;;;;;;;21.33;6.68;;;;;;;25.37;69.74;100684.81;5035831;28;20032;-81
2023/09/26 08:30:16;;;;;;;16.00;5.32;;;;;;;25.38;68.42;100691.00;5035470;28;20387;-79
2023/09/26 08:32:42;;;;;;;19.13;7.43;;;;;;;25.02;69.53;100650.31;5053386;28;20116;-86
2023/09/26 08:35:11;;;;;;;11.63;5.18;;;;;;;24.81;69.31;100625.19;5035621;28;20036;-88
2023/09/26 08:37:39;;;;;;;16.98;5.95;;;;;;;24.97;69.82;100690.91;5035419;28;20021;-80
2023/09/26 08:40:06;;;;;;;15.60;5.93;;;;;;;24.88;69.58;100694.59;5053425;28;20040;-82
2023/09/26 08:42:36;;;;;;;13.40;5.30;;;;;;;24.81;70.34;100690.31;5035019;28;20031;-79
2023/09/26 08:45:03;;;;;;;17.23;5.38;;;;;;;24.81;70.24;100680.63;5035386;28;20423;-82
2023/09/26 08:47:28;;;;;;;17.52;4.97;;;;;;;25.04;69.98;100668.75;5053073;28;20037;-79
2023/09/26 08:49:54;;;;;;;19.60;5.32;;;;;;;25.22;68.78;100693.91;5053428;28;20053;-80
2023/09/26 08:52:28;;;;;;;12.80;5.20;;;;;;;24.75;69.63;100611.22;5052920;28;20028;-80
2023/09/26 08:54:54;;;;;;;19.48;5.32;;;;;;;24.21;69.13;100555.00;5035396;28;20415;-79
2023/09/26 08:57:21;;;;;;;11.77;4.95;;;;;;;24.95;71.39;100671.56;5053008;28;20051;-80
2023/09/26 08:59:47;;;;;;;17.02;5.55;;;;;;;25.11;70.71;100669.47;5052966;28;20036;-81
2023/09/26 09:02:13;;;;;;;19.63;5.60;;;;;;;25.04;69.66;100685.47;5052860;28;20709;-82
2023/09/26 09:04:44;;;;;;;14.70;5.72;;;;;;;25.03;70.16;100664.38;5041190;28;20115;-79
2023/09/26 09:07:11;;;;;;;21.98;6.10;;;;;;;25.18;70.32;100673.75;5045790;28;20677;-81
2023/09/26 09:09:37;;;;;;;14.90;5.18;;;;;;;25.24;70.09;100659.56;5042621;28;20033;-80
2023/09/26 09:12:20;;;;;;;19.65;5.75;;;;;;;25.62;68.47;100681.66;5042401;28;20478;-79
2023/09/26 09:14:46;;;;;;;12.45;6.13;;;;;;;25.75;67.91;100666.41;5047203;28;20095;-82
2023/09/26 09:17:12;;;;;;;20.70;5.90;;;;;;;25.98;66.58;100669.38;5045793;28;20025;-79
2023/09/26 09:19:45;;;;;;;15.23;5.75;;;;;;;26.23;67.61;100666.16;5041084;28;20026;-82
2023/09/26 09:22:18;;;;;;;17.38;5.60;;;;;;;26.24;65.51;100627.31;5041486;28;20453;-79
2023/09/26 09:24:51;;;;;;;14.93;5.40;;;;;;;26.52;65.79;100674.25;5026277;28;20471;-80
2023/09/26 09:27:16;;;;;;;13.35;4.88;;;;;;;26.43;64.62;100665.66;5040641;28;20053;-79
2023/09/26 09:29:41;;;;;;;17.08;5.35;;;;;;;26.56;64.24;100683.88;5045238;28;20064;-77
2023/09/26 09:32:07;;;;;;;14.68;5.38;;;;;;;26.75;63.85;100666.59;5071867;28;20086;-77
2023/09/26 09:34:34;;;;;;;15.48;5.50;;;;;;;27.00;64.37;100651.81;5034292;28;20106;-83
2023/09/26 09:37:00;;;;;;;22.58;7.38;;;;;;;26.99;63.21;100632.38;5050555;28;20025;-76
2023/09/26 09:39:26;;;;;;;19.10;5.30;;;;;;;26.90;62.39;100591.13;5034303;28;20029;-78
2023/09/26 09:42:03;;;;;;;16.15;4.93;;;;;;;26.99;61.25;100607.66;5051998;28;20033;-76
2023/09/26 09:44:30;;;;;;;25.08;5.28;;;;;;;27.08;61.86;100596.81;5052256;28;20039;-78
2023/09/26 09:47:02;;;;;;;22.88;5.55;;;;;;;27.52;62.04;100652.06;5050712;28;20029;-79
2023/09/26 09:49:32;;;;;;;15.43;5.32;;;;;;;27.46;59.77;100633.72;5052026;28;20029;-78
2023/09/26 09:52:02;;;;;;;;;;;;;;;27.54;59.62;100653.75;5052375;28;20088;-78
2023/09/26 09:54:33;;;;;;;12.80;5.07;;;;;;;27.50;59.53;100611.47;5052079;28;19917;-81
2023/09/26 09:57:06;;;;;;;31.90;6.80;;;;;;;27.74;58.60;100631.06;5050435;28;20415;-79
2023/09/26 09:59:35;;;;;;;15.85;5.85;;;;;;;27.95;60.18;100640.06;5050436;28;20025;-80
2023/09/26 10:02:03;;;;;;;19.13;4.90;;;;;;;27.90;58.72;100637.59;5045815;28;20143;-77
2023/09/26 10:04:31;;;;;;;16.33;5.13;;;;;;;27.92;61.46;100634.88;5031662;28;20405;-78
2023/09/26 10:06:58;;;;;;;15.90;5.00;;;;;;;27.77;59.46;100620.34;5049191;28;20029;-80
2023/09/26 10:09:24;;;;;;;13.80;4.70;;;;;;;27.64;59.08;100641.09;5051343;28;20408;-81
2023/09/26 10:11:52;;;;;;;18.67;5.38;;;;;;;27.51;59.35;100637.94;5033776;28;20048;-79
2023/09/26 10:14:28;;;;;;;18.60;5.90;;;;;;;27.28;60.58;100634.16;5051493;28;20021;-79
2023/09/26 10:16:55;;;;;;;13.85;5.10;;;;;;;27.18;60.29;100645.09;5051222;28;20032;-82
2023/09/26 10:19:26;;;;;;;11.57;4.78;;;;;;;27.09;61.37;100569.38;5033539;28;20051;-78
2023/09/26 10:21:52;;;;;;;14.07;4.82;;;;;;;27.34;60.53;100638.44;5051408;28;20460;-82
2023/09/26 10:24:21;;;;;;;16.50;5.60;;;;;;;27.19;61.08;100645.06;5051036;28;20111;-76
2023/09/26 10:26:48;;;;;;;53.60;12.02;;;;;;;27.06;61.17;100635.72;5050257;28;20547;-77
2023/09/26 10:29:27;;;;;;;41.85;9.38;;;;;;;26.94;62.31;100626.34;5030091;28;20086;-80
2023/09/26 10:32:21;;;;;;;42.15;7.80;;;;;;;27.31;63.24;100622.59;5051039;28;20033;-77
2023/09/26 10:34:46;;;;;;;28.08;6.18;;;;;;;27.45;60.96;100603.66;5051225;28;20033;-80
2023/09/26 10:37:18;;;;;;;26.55;5.97;;;;;;;27.23;60.59;100609.59;5051245;28;20446;-77
2023/09/26 10:39:44;;;;;;;16.58;5.55;;;;;;;27.04;62.00;100616.34;5033285;28;20036;-76
2023/09/26 10:42:22;;;;;;;30.23;6.38;;;;;;;26.73;62.35;100562.47;5051045;28;20037;-79
2023/09/26 10:44:51;;;;;;;28.98;6.32;;;;;;;27.25;61.51;100612.19;5050857;28;20063;-78
2023/09/26 10:47:19;;;;;;;22.85;6.43;;;;;;;27.19;59.45;100601.78;5050981;28;20076;-82
2023/09/26 10:49:44;;;;;;;15.25;5.57;;;;;;;27.23;60.20;100593.69;5051131;28;20110;-76
2023/09/26 10:52:11;;;;;;;17.60;5.47;;;;;;;27.48;60.60;100600.03;5032871;28;20036;-77
2023/09/26 10:54:39;;;;;;;14.55;5.00;;;;;;;26.94;61.26;100536.25;5051004;28;20096;-78
2023/09/26 10:57:05;;;;;;;15.65;5.10;;;;;;;27.13;60.91;100603.69;5050791;28;20021;-83
2023/09/26 10:59:31;;;;;;;11.50;4.78;;;;;;;27.16;61.28;100599.22;5050657;28;20060;-78
2023/09/26 11:01:58;;;;;;;14.20;4.97;;;;;;;27.34;61.31;100605.75;5050831;28;20115;-78
2023/09/26 11:04:28;;;;;;;16.73;4.78;;;;;;;27.49;58.62;100602.66;5032701;28;20040;-78
2023/09/26 11:06:55;;;;;;;19.75;5.00;;;;;;;27.43;57.85;100523.31;5049231;28;20044;-79
2023/09/26 11:09:20;;;;;;;18.52;5.65;;;;;;;27.38;57.46;100481.00;5050172;28;20017;-75
2023/09/26 11:11:46;;;;;;;15.75;5.25;;;;;;;28.27;56.19;100592.19;5049008;28;20036;-77
2023/09/26 11:14:11;;;;;;;15.57;5.55;;;;;;;28.17;56.51;100575.72;5025215;28;20037;-75